createdAt,value
2022-10-05T00:10:46.340Z,1.9
2022-10-05T00:22:46.356Z,1.6
2022-10-05T00:34:46.393Z,1.6
2022-10-05T00:46:46.701Z,1.6
2022-10-05T00:58:46.367Z,1.7
2022-10-05T01:10:46.466Z,1.7
2022-10-05T01:22:46.400Z,1.5
2022-10-05T01:34:46.459Z,1.5
2022-10-05T01:46:46.767Z,1.5
2022-10-05T01:58:46.418Z,1.4
2022-10-05T02:10:46.516Z,1.4
2022-10-05T02:22:46.537Z,1.5
2022-10-05T02:34:46.547Z,1.5
2022-10-05T02:46:46.605Z,1.5
2022-10-05T02:58:46.563Z,1.5
2022-10-05T03:10:46.460Z,1.5
2022-10-05T03:22:46.221Z,1.5
2022-10-05T03:34:46.192Z,1.5
2022-10-05T03:46:46.581Z,1.5
2022-10-05T03:58:46.188Z,1.5
2022-10-05T04:10:46.201Z,1.5
2022-10-05T04:22:46.174Z,1.5
2022-10-05T04:34:46.172Z,1.5
2022-10-05T04:46:46.514Z,1.5
2022-10-05T04:58:46.178Z,1.3
2022-10-05T05:10:46.166Z,1.3
2022-10-05T05:22:46.289Z,1.6
2022-10-05T05:34:46.173Z,1.6
2022-10-05T05:47:02.892Z,1.6
2022-10-05T05:58:46.420Z,1.4
2022-10-05T06:10:46.171Z,1.4
2022-10-05T06:22:46.168Z,1.6
2022-10-05T06:34:46.169Z,1.6
2022-10-05T06:46:46.408Z,1.6
2022-10-05T06:58:46.166Z,1.4
2022-10-05T07:10:46.164Z,1.4
2022-10-05T07:22:46.164Z,1.7
2022-10-05T07:34:46.170Z,1.7
2022-10-05T07:46:46.551Z,1.7
2022-10-05T07:58:46.172Z,1.9
2022-10-05T08:10:46.171Z,1.9
2022-10-05T08:22:46.172Z,3.0
2022-10-05T08:34:46.177Z,3.0
2022-10-05T08:46:46.165Z,3.0
2022-10-05T08:58:46.237Z,4.4
2022-10-05T09:10:46.159Z,4.4
2022-10-05T09:22:46.163Z,3.2
2022-10-05T09:34:46.175Z,3.2
2022-10-05T09:46:46.252Z,3.2
2022-10-05T09:58:46.171Z,2.9
2022-10-05T10:10:46.749Z,2.9
2022-10-05T10:22:46.181Z,2.6
2022-10-05T10:34:46.175Z,2.6
2022-10-05T10:46:46.671Z,2.6
2022-10-05T10:58:46.167Z,2.4
2022-10-05T11:10:46.173Z,2.4
2022-10-05T11:22:46.375Z,2.3
2022-10-05T11:34:46.360Z,2.3
2022-10-05T11:46:46.315Z,2.3
2022-10-05T11:58:46.280Z,2.2
2022-10-05T12:10:46.694Z,2.2
2022-10-05T12:22:46.275Z,2.4
2022-10-05T12:34:46.228Z,2.4
2022-10-05T12:46:46.183Z,2.4
2022-10-05T12:58:46.168Z,3.3
2022-10-05T13:10:46.284Z,3.3
2022-10-05T13:22:46.173Z,2.7
2022-10-05T13:34:46.182Z,2.7
2022-10-05T13:46:46.266Z,2.7
2022-10-05T13:58:46.261Z,3.1
2022-10-05T14:10:46.169Z,3.1
2022-10-05T14:22:46.285Z,2.7
2022-10-05T14:34:46.177Z,2.7
2022-10-05T14:46:46.201Z,2.7
2022-10-05T14:58:46.177Z,2.4
2022-10-05T15:10:46.180Z,2.4
2022-10-05T15:43:53.279Z,2.4
2022-10-05T15:55:53.177Z,2.2
2022-10-05T16:07:53.158Z,2.2
2022-10-05T16:19:53.240Z,2.5
2022-10-05T16:31:53.173Z,2.5
2022-10-05T16:43:53.154Z,2.5
2022-10-05T16:55:53.214Z,2.5
2022-10-05T17:07:53.156Z,2.5
2022-10-05T17:19:53.245Z,2.4
2022-10-05T17:31:53.249Z,2.4
2022-10-05T17:43:53.213Z,2.4
2022-10-05T17:55:53.357Z,2.7
2022-10-05T18:07:53.234Z,2.7
2022-10-05T18:19:53.236Z,2.4
2022-10-05T18:31:53.161Z,2.4
2022-10-05T18:43:53.151Z,2.4
2022-10-05T18:55:53.165Z,2.3
2022-10-05T19:07:53.163Z,2.3
2022-10-05T19:19:53.157Z,2.1
2022-10-05T19:31:53.161Z,2.1
2022-10-05T19:43:53.186Z,2.1
2022-10-05T19:55:53.237Z,2.1
2022-10-05T20:07:53.158Z,2.1
2022-10-05T20:19:53.160Z,2.0
2022-10-05T20:31:53.169Z,2.0
2022-10-05T20:43:54.507Z,2.0
2022-10-05T20:55:53.156Z,1.7
2022-10-05T21:07:53.160Z,1.7
2022-10-05T21:19:53.213Z,1.7
2022-10-05T21:31:53.227Z,1.7
2022-10-05T21:43:53.162Z,1.7
2022-10-05T21:55:53.167Z,1.6
2022-10-05T22:07:53.168Z,1.6
2022-10-05T22:19:53.166Z,1.6
2022-10-05T22:31:53.200Z,1.6
2022-10-05T22:43:53.168Z,1.6
2022-10-05T22:55:53.162Z,1.6
2022-10-05T23:07:53.166Z,1.6
2022-10-05T23:19:53.167Z,1.5
2022-10-05T23:31:53.171Z,1.5
2022-10-05T23:43:53.164Z,1.5
2022-10-05T23:55:53.206Z,1.7
